createdAt,value
2022-10-02T06:03:15.439Z,84.70
2022-10-02T06:06:34.797Z,50.72
2022-10-02T06:09:55.520Z,40.72
2022-10-02T06:13:35.699Z,42.58
2022-10-02T06:16:53.997Z,71.53
2022-10-02T06:20:04.211Z,60.63
2022-10-02T06:23:31.670Z,70.35
2022-10-02T06:26:49.378Z,53.08
2022-10-02T06:30:11.294Z,54.63
2022-10-02T06:33:26.430Z,49.65
2022-10-02T06:36:42.896Z,37.58
2022-10-02T06:40:12.031Z,34.90
2022-10-02T06:43:54.682Z,34.30
2022-10-02T06:47:18.283Z,36.75
2022-10-02T06:50:43.202Z,44.30
2022-10-02T06:53:56.756Z,39.20
2022-10-02T06:57:11.558Z,33.75
2022-10-02T07:00:21.296Z,40.20
2022-10-02T07:04:27.433Z,46.97
2022-10-02T07:11:32.334Z,35.55
2022-10-02T07:16:12.789Z,51.10
2022-10-02T07:25:01.586Z,32.45
2022-10-02T07:28:44.006Z,36.10
2022-10-02T07:32:52.154Z,22.00
2022-10-02T07:36:20.139Z,34.08
2022-10-02T09:46:35.317Z,53.53
2022-10-02T10:40:30.636Z,39.17
2022-10-02T11:14:01.078Z,30.25
2022-10-02T11:59:51.122Z,13.60
2022-10-02T12:03:24.834Z,28.30
2022-10-02T12:11:40.830Z,31.23
2022-10-02T12:15:57.178Z,26.52
2022-10-02T12:25:10.256Z,30.15
2022-10-02T12:47:24.846Z,32.10
2022-10-02T13:05:04.707Z,19.48
2022-10-02T13:14:22.143Z,25.15
2022-10-02T13:18:48.181Z,17.45
2022-10-02T13:22:34.093Z,19.58
2022-10-02T14:06:03.284Z,18.08
2022-10-02T14:09:12.470Z,29.83
2022-10-02T14:13:14.611Z,24.83
2022-10-02T14:16:30.754Z,22.77
2022-10-02T14:19:51.732Z,22.67
2022-10-02T14:23:25.409Z,19.23
2022-10-02T14:27:22.245Z,25.85
2022-10-02T14:31:08.760Z,27.70
2022-10-02T14:56:23.993Z,31.27
2022-10-02T14:59:52.654Z,12.90
2022-10-02T15:03:23.474Z,15.60
2022-10-02T15:21:12.518Z,24.00
2022-10-02T15:24:48.438Z,27.80
2022-10-02T15:28:43.916Z,23.20
2022-10-02T15:32:07.056Z,25.40
2022-10-02T15:35:44.192Z,22.67
2022-10-02T15:39:28.149Z,20.17
2022-10-02T15:43:17.361Z,18.60
2022-10-02T15:46:33.754Z,28.05
2022-10-02T15:50:35.484Z,21.13
2022-10-02T15:54:21.554Z,33.25
2022-10-02T15:57:54.535Z,22.15
2022-10-02T16:01:43.478Z,22.77
2022-10-02T16:05:32.009Z,22.00
2022-10-02T16:09:06.946Z,25.75
2022-10-02T16:12:41.877Z,19.30
2022-10-02T16:16:00.806Z,22.20
2022-10-02T16:19:53.099Z,21.98
2022-10-02T16:23:16.079Z,15.43
2022-10-02T16:27:00.032Z,18.05
2022-10-02T16:30:32.100Z,16.95
2022-10-02T16:34:16.278Z,26.23
2022-10-02T16:37:29.329Z,13.95
2022-10-02T16:40:58.570Z,15.68
2022-10-02T16:44:47.246Z,17.70
2022-10-02T16:48:05.050Z,25.38
2022-10-02T16:51:40.191Z,21.90
2022-10-02T16:55:19.125Z,16.80
2022-10-02T16:58:43.995Z,23.73
2022-10-02T17:02:32.310Z,19.05
2022-10-02T17:05:54.694Z,20.50
2022-10-02T17:09:20.362Z,26.85
2022-10-02T17:12:54.989Z,23.77
2022-10-02T17:16:57.889Z,14.23
2022-10-02T17:20:07.732Z,18.90
2022-10-02T17:23:15.525Z,24.55
2022-10-02T17:26:44.670Z,22.63
2022-10-02T17:30:24.312Z,21.42
2022-10-02T17:33:40.097Z,22.42
2022-10-02T17:37:32.189Z,22.00
2022-10-02T17:41:20.407Z,18.50
2022-10-02T17:44:46.074Z,17.40
2022-10-02T17:48:11.492Z,24.05
2022-10-02T17:51:51.176Z,26.58
2022-10-02T17:55:41.769Z,21.30
2022-10-02T17:59:12.996Z,27.92
2022-10-02T18:02:41.259Z,24.83
2022-10-02T18:06:01.582Z,24.50
2022-10-02T18:09:47.352Z,21.75
2022-10-02T18:13:56.073Z,25.50
2022-10-02T18:17:23.816Z,17.80
2022-10-02T18:20:43.450Z,23.38
2022-10-02T18:24:02.837Z,24.58
2022-10-02T18:27:37.703Z,23.05
2022-10-02T18:34:57.041Z,20.58
2022-10-02T18:38:31.134Z,20.60
2022-10-02T18:41:55.817Z,25.75
2022-10-02T18:45:37.882Z,21.58
2022-10-02T18:49:09.196Z,26.38
2022-10-02T18:52:28.400Z,15.15
2022-10-02T18:55:50.170Z,21.25
2022-10-02T18:59:27.478Z,21.23
2022-10-02T19:02:53.910Z,17.80
2022-10-02T19:06:11.428Z,17.27
2022-10-02T19:09:22.873Z,23.27
2022-10-02T19:12:31.427Z,19.02
2022-10-02T19:15:36.649Z,20.33
2022-10-02T19:18:40.864Z,23.60
2022-10-02T19:21:45.699Z,21.88
2022-10-02T19:25:05.614Z,26.05
2022-10-02T19:28:19.581Z,20.35
2022-10-02T19:31:27.443Z,23.85
2022-10-02T19:34:32.420Z,31.08
2022-10-02T19:37:44.282Z,29.05
2022-10-02T19:40:54.249Z,25.42
2022-10-02T19:44:06.838Z,18.50
2022-10-02T19:47:45.588Z,15.70
2022-10-02T19:50:55.402Z,26.23
2022-10-02T19:54:03.489Z,11.80
2022-10-02T19:57:16.495Z,13.73
2022-10-02T20:00:21.095Z,18.48
2022-10-02T20:03:27.080Z,16.88
2022-10-02T20:06:37.615Z,22.27
2022-10-02T20:10:03.816Z,17.30
2022-10-02T20:13:33.550Z,19.85
2022-10-02T20:16:59.293Z,17.48
2022-10-02T20:20:11.992Z,19.20
2022-10-02T20:23:26.962Z,20.65
2022-10-02T20:26:33.971Z,15.05
2022-10-02T20:29:47.086Z,16.50
2022-10-02T20:33:06.614Z,20.17
2022-10-02T20:36:23.247Z,16.00
2022-10-02T20:39:40.831Z,15.85
2022-10-02T20:43:01.960Z,18.45
2022-10-02T20:46:29.048Z,17.75
2022-10-02T20:49:54.745Z,19.20
2022-10-02T20:53:05.524Z,22.20
2022-10-02T20:56:45.871Z,21.95
2022-10-02T21:00:21.892Z,23.15
2022-10-02T21:04:09.139Z,29.38
2022-10-02T21:07:59.212Z,25.13
2022-10-02T21:11:03.782Z,23.13
2022-10-02T21:14:42.380Z,21.15
2022-10-02T21:18:29.695Z,18.83
2022-10-02T21:22:14.812Z,14.68
2022-10-02T21:26:16.471Z,23.17
2022-10-02T21:29:36.089Z,27.10
2022-10-02T21:33:05.355Z,18.17
2022-10-02T21:36:31.283Z,22.60
2022-10-02T21:40:08.107Z,22.40
2022-10-02T21:44:08.951Z,12.85
2022-10-02T21:47:54.169Z,26.00
2022-10-02T21:51:56.851Z,29.52
2022-10-02T21:55:54.951Z,20.05
2022-10-02T21:59:14.201Z,19.75
2022-10-02T22:02:37.265Z,17.83
2022-10-02T22:06:20.942Z,16.85
2022-10-02T22:10:02.186Z,24.27
2022-10-02T22:13:15.931Z,22.98
2022-10-02T22:16:28.773Z,12.35
2022-10-02T22:20:08.386Z,18.73
2022-10-02T22:23:47.671Z,18.35
2022-10-02T22:27:10.463Z,18.70
2022-10-02T22:30:29.809Z,14.07
2022-10-02T22:33:57.050Z,19.13
2022-10-02T22:37:37.844Z,21.05
2022-10-02T22:40:48.324Z,14.45
2022-10-02T22:44:12.008Z,16.27
2022-10-02T22:47:37.805Z,14.63
2022-10-02T22:50:58.207Z,19.25
2022-10-02T22:54:33.244Z,21.00
2022-10-02T22:58:05.653Z,26.45
2022-10-02T23:01:17.141Z,18.35
2022-10-02T23:04:39.124Z,19.17
2022-10-02T23:08:15.959Z,28.45
2022-10-02T23:11:56.347Z,27.45
2022-10-02T23:15:47.535Z,26.40
2022-10-02T23:19:29.531Z,18.02
2022-10-02T23:22:43.811Z,21.05
2022-10-02T23:26:12.413Z,20.80
2022-10-02T23:29:49.359Z,18.60
2022-10-02T23:33:17.822Z,20.67
2022-10-02T23:36:36.390Z,18.92
2022-10-02T23:39:53.549Z,16.38
2022-10-02T23:43:04.631Z,22.90
2022-10-02T23:46:19.783Z,20.15
2022-10-02T23:49:33.917Z,20.73
2022-10-02T23:52:57.156Z,19.73
2022-10-02T23:56:20.187Z,30.52
2022-10-02T23:59:52.788Z,23.33
